Time;durP1;ratioP1;P1;durP2;ratioP2;P2;SDS_P1;SDS_P2;PMS_P1;PMS_P2;Temp;Humidity;BMP_temperature;BMP_pressure;BME280_temperature;BME280_humidity;BME280_pressure;Samples;Min_cycle;Max_cycle;Signal;HPM_P1;HPM_P2
2021/09/07 00:01:03;;;;;;;26.33;18.35;;;16.10;90.90;;;;;;4889639;29;20473;-80
2021/09/07 00:03:29;;;;;;;22.67;18.02;;;16.00;91.00;;;;;;4903996;29;20032;-79
2021/09/07 00:05:54;;;;;;;24.83;18.98;;;16.00;91.10;;;;;;4902202;29;20025;-78
2021/09/07 00:08:20;;;;;;;23.20;18.23;;;16.00;91.20;;;;;;4885840;29;20044;-79
2021/09/07 00:10:45;;;;;;;24.98;18.45;;;16.00;91.20;;;;;;4916993;29;20433;-80
2021/09/07 00:13:11;;;;;;;24.77;18.08;;;16.00;91.20;;;;;;4901095;29;20507;-80
2021/09/07 00:15:37;;;;;;;28.75;18.65;;;16.00;91.20;;;;;;4901095;29;20487;-80
2021/09/07 00:18:02;;;;;;;24.83;17.75;;;16.00;91.10;;;;;;4917591;29;20024;-79
2021/09/07 00:20:28;;;;;;;26.73;18.02;;;16.00;91.00;;;;;;4900725;29;20075;-78
2021/09/07 00:22:54;;;;;;;24.80;17.85;;;16.00;91.00;;;;;;4885120;29;20032;-77
2021/09/07 00:25:19;;;;;;;30.27;19.33;;;16.00;91.20;;;;;;4900498;29;20051;-80
2021/09/07 00:27:45;;;;;;;24.27;18.15;;;15.90;91.10;;;;;;4901424;29;20084;-78
2021/09/07 00:30:11;;;;;;;27.33;18.67;;;15.90;91.30;;;;;;4885711;29;20046;-78
2021/09/07 00:32:37;;;;;;;25.02;18.33;;;15.80;91.50;;;;;;4932106;29;20072;-79
2021/09/07 00:35:03;;;;;;;26.65;18.33;;;15.80;91.60;;;;;;4885659;29;20028;-78
2021/09/07 00:37:29;;;;;;;26.48;18.60;;;15.80;91.70;;;;;;4932185;29;20463;-78
2021/09/07 00:39:54;;;;;;;28.95;20.27;;;15.70;91.70;;;;;;4885098;29;20127;-79
2021/09/07 00:42:20;;;;;;;27.13;18.20;;;15.70;91.80;;;;;;4900832;29;20492;-78
2021/09/07 00:44:45;;;;;;;26.23;17.92;;;15.70;91.80;;;;;;4900566;29;20424;-78
2021/09/07 00:47:11;;;;;;;22.92;16.48;;;15.60;91.90;;;;;;4900609;29;20437;-78
2021/09/07 00:49:37;;;;;;;25.25;16.65;;;15.60;92.00;;;;;;4899915;29;20043;-78
2021/09/07 00:52:05;;;;;;;26.95;16.90;;;15.50;92.00;;;;;;4929894;29;20041;-78
2021/09/07 00:54:34;;;;;;;24.65;16.88;;;15.50;92.10;;;;;;4931973;29;20040;-78
2021/09/07 00:57:03;;;;;;;27.30;16.73;;;15.50;92.10;;;;;;4900232;29;20115;-78
2021/09/07 00:59:31;;;;;;;26.45;16.63;;;15.50;92.10;;;;;;4900313;29;20410;-78
2021/09/07 01:01:57;;;;;;;24.67;16.55;;;15.40;92.10;;;;;;4931695;29;20380;-78
2021/09/07 01:04:23;;;;;;;23.42;16.20;;;15.40;92.20;;;;;;4917596;29;20028;-78
2021/09/07 01:06:48;;;;;;;21.52;15.70;;;15.30;92.30;;;;;;4900289;29;20036;-79
2021/09/07 01:09:15;;;;;;;26.73;16.45;;;15.30;92.40;;;;;;4884863;29;20043;-78
2021/09/07 01:11:41;;;;;;;25.25;16.55;;;15.40;92.40;;;;;;4884571;29;20035;-78
2021/09/07 01:14:07;;;;;;;23.63;15.85;;;15.40;92.30;;;;;;4915501;29;20040;-78
2021/09/07 01:16:32;;;;;;;28.05;15.60;;;15.50;92.30;;;;;;4869237;29;20036;-78
2021/09/07 01:18:59;;;;;;;20.35;14.20;;;15.50;92.20;;;;;;4900572;29;20039;-80
2021/09/07 01:21:26;;;;;;;26.17;16.05;;;15.50;92.20;;;;;;4869632;29;20083;-77
2021/09/07 01:23:52;;;;;;;20.13;15.63;;;15.50;92.20;;;;;;4916360;29;20087;-78
2021/09/07 01:26:20;;;;;;;21.60;16.23;;;15.50;92.20;;;;;;4884773;29;20119;-78
2021/09/07 01:28:46;;;;;;;21.90;16.30;;;15.60;92.20;;;;;;4931794;29;20160;-78
2021/09/07 01:31:12;;;;;;;26.40;16.70;;;15.60;92.20;;;;;;4899867;29;20057;-79
2021/09/07 01:33:39;;;;;;;24.75;16.85;;;15.60;92.10;;;;;;4900232;29;20092;-79
2021/09/07 01:36:05;;;;;;;22.92;16.60;;;15.60;92.10;;;;;;4884379;29;20064;-79
2021/09/07 01:38:32;;;;;;;25.35;16.42;;;15.60;92.20;;;;;;4931545;29;20032;-78
2021/09/07 01:40:58;;;;;;;23.00;16.60;;;15.60;92.20;;;;;;4919775;29;20039;-80
2021/09/07 01:43:24;;;;;;;24.98;16.38;;;15.60;92.20;;;;;;4903739;29;20214;-78
2021/09/07 01:45:51;;;;;;;20.95;15.55;;;15.60;92.20;;;;;;4935460;29;20436;-78
2021/09/07 01:48:18;;;;;;;23.35;16.75;;;15.50;92.20;;;;;;4920248;29;20472;-78
2021/09/07 01:50:44;;;;;;;25.67;16.88;;;15.50;92.20;;;;;;4920338;29;20172;-79
2021/09/07 01:53:10;;;;;;;23.90;17.38;;;15.50;92.20;;;;;;4920545;29;20477;-79
2021/09/07 01:55:36;;;;;;;22.42;16.42;;;15.40;92.30;;;;;;4919263;29;20035;-79
2021/09/07 01:58:02;;;;;;;21.27;16.42;;;15.40;92.30;;;;;;4920438;29;20035;-80
2021/09/07 02:00:28;;;;;;;27.02;18.60;;;15.40;92.40;;;;;;4934706;29;20032;-78
2021/09/07 02:02:53;;;;;;;23.10;17.00;;;15.40;92.40;;;;;;4920201;29;20084;-78
2021/09/07 02:05:19;;;;;;;22.52;17.05;;;15.30;92.40;;;;;;4918493;29;20028;-78
2021/09/07 02:07:45;;;;;;;23.05;16.35;;;15.30;92.50;;;;;;4903532;29;20028;-79
2021/09/07 02:10:11;;;;;;;22.30;16.55;;;15.20;92.50;;;;;;4919755;29;20040;-80
2021/09/07 02:12:36;;;;;;;25.08;17.85;;;15.20;92.60;;;;;;4903377;29;20067;-79
2021/09/07 02:15:03;;;;;;;25.98;16.70;;;15.20;92.70;;;;;;4920622;29;20035;-78
2021/09/07 02:17:29;;;;;;;25.90;16.83;;;15.10;92.70;;;;;;4918979;29;20047;-79
2021/09/07 02:19:54;;;;;;;25.63;16.92;;;15.20;92.70;;;;;;4887501;29;20392;-79
2021/09/07 02:22:21;;;;;;;22.23;16.83;;;15.20;92.70;;;;;;4902886;29;20032;-79
2021/09/07 02:24:47;;;;;;;22.42;16.92;;;15.10;92.70;;;;;;4920349;29;20036;-79
2021/09/07 02:27:13;;;;;;;23.73;16.45;;;15.10;92.70;;;;;;4919909;29;20120;-78
2021/09/07 02:29:39;;;;;;;25.42;17.77;;;15.20;92.70;;;;;;4903561;29;20135;-78
2021/09/07 02:32:06;;;;;;;25.60;19.55;;;15.20;92.60;;;;;;4918218;29;20486;-79
2021/09/07 02:34:32;;;;;;;26.75;19.40;;;15.10;92.70;;;;;;4934609;29;20539;-79
2021/09/07 02:36:58;;;;;;;29.95;20.17;;;15.10;92.80;;;;;;4919241;29;20028;-78
2021/09/07 02:39:23;;;;;;;26.42;19.27;;;15.00;92.80;;;;;;4903189;29;20063;-78
2021/09/07 02:41:49;;;;;;;24.23;18.52;;;15.10;92.90;;;;;;4871159;29;20035;-79
2021/09/07 02:44:15;;;;;;;26.10;18.58;;;15.10;92.80;;;;;;4934007;29;20051;-79
2021/09/07 02:46:41;;;;;;;25.20;18.55;;;15.20;92.80;;;;;;4903039;29;20043;-79
2021/09/07 02:49:06;;;;;;;26.52;18.98;;;15.20;92.80;;;;;;4903019;29;20483;-79
2021/09/07 02:51:32;;;;;;;28.42;19.15;;;15.20;92.70;;;;;;4900946;29;20032;-79
2021/09/07 02:53:57;;;;;;;28.63;18.70;;;15.20;92.80;;;;;;4887562;29;20052;-79
2021/09/07 02:56:23;;;;;;;27.52;19.13;;;15.20;92.80;;;;;;4884107;29;20032;-79
2021/09/07 02:58:49;;;;;;;25.33;19.25;;;15.20;92.80;;;;;;4915077;29;20395;-79
2021/09/07 03:01:14;;;;;;;25.38;19.20;;;15.20;92.80;;;;;;4884006;29;20497;-79
2021/09/07 03:03:40;;;;;;;30.98;19.00;;;15.20;92.80;;;;;;4884022;29;20112;-79
2021/09/07 03:06:06;;;;;;;25.02;18.17;;;15.20;92.80;;;;;;4914804;29;20024;-79
2021/09/07 03:08:32;;;;;;;26.38;18.15;;;15.20;92.70;;;;;;4883378;29;20058;-79
2021/09/07 03:10:58;;;;;;;30.30;18.55;;;15.20;92.70;;;;;;4883501;29;20033;-79
2021/09/07 03:13:24;;;;;;;27.02;19.00;;;15.20;92.70;;;;;;4914837;29;20088;-79
2021/09/07 03:15:50;;;;;;;23.83;18.00;;;15.10;92.70;;;;;;4883401;29;20029;-79
2021/09/07 03:18:15;;;;;;;27.10;19.00;;;15.10;92.70;;;;;;4899829;29;20491;-80
2021/09/07 03:20:42;;;;;;;26.38;19.42;;;15.00;92.80;;;;;;4883011;29;20037;-80
2021/09/07 03:23:08;;;;;;;25.70;17.50;;;14.90;93.00;;;;;;4883530;29;20108;-78
2021/09/07 03:25:33;;;;;;;23.58;17.65;;;15.00;93.00;;;;;;4914447;29;20139;-79
2021/09/07 03:27:59;;;;;;;24.42;17.63;;;14.90;93.00;;;;;;4883361;29;20036;-79
2021/09/07 03:30:25;;;;;;;23.02;17.52;;;15.00;92.90;;;;;;4914205;29;20040;-77
2021/09/07 03:32:51;;;;;;;24.77;17.67;;;15.00;92.90;;;;;;4914437;29;20383;-78
2021/09/07 03:35:18;;;;;;;27.08;19.00;;;15.00;92.90;;;;;;4898369;29;20487;-80
2021/09/07 03:37:44;;;;;;;25.75;18.00;;;15.00;92.90;;;;;;4898582;29;20037;-78
2021/09/07 03:40:11;;;;;;;28.42;19.23;;;14.90;93.00;;;;;;4867743;29;20058;-78
2021/09/07 03:42:37;;;;;;;25.02;18.02;;;14.80;93.10;;;;;;4898469;29;20036;-78
2021/09/07 03:45:08;;;;;;;23.02;17.80;;;14.80;93.20;;;;;;4867409;29;20096;-78
2021/09/07 03:47:34;;;;;;;24.10;17.25;;;14.80;93.20;;;;;;4899706;29;20349;-78
2021/09/07 03:50:00;;;;;;;25.73;17.23;;;14.90;93.20;;;;;;4882770;29;20033;-78
2021/09/07 03:52:25;;;;;;;24.55;17.85;;;15.00;93.10;;;;;;4901917;29;20056;-78
2021/09/07 03:54:51;;;;;;;24.63;17.17;;;15.00;93.00;;;;;;4901824;29;20521;-78
2021/09/07 03:57:17;;;;;;;23.90;18.30;;;15.00;92.90;;;;;;4901233;29;20123;-78
2021/09/07 03:59:42;;;;;;;26.50;18.77;;;15.10;92.80;;;;;;4901491;29;20477;-78
2021/09/07 04:02:08;;;;;;;28.15;17.95;;;15.10;92.80;;;;;;4901236;29;20119;-77
2021/09/07 04:04:33;;;;;;;26.08;17.05;;;15.20;92.80;;;;;;4901219;29;20119;-77
2021/09/07 04:06:59;;;;;;;22.52;18.02;;;15.20;92.70;;;;;;4886361;29;20037;-77
2021/09/07 04:09:25;;;;;;;28.83;18.38;;;15.30;92.60;;;;;;4885285;29;20036;-78
2021/09/07 04:11:51;;;;;;;25.52;16.95;;;15.30;92.60;;;;;;4917978;29;20032;-77
2021/09/07 04:14:17;;;;;;;24.20;17.27;;;15.40;92.50;;;;;;4900844;29;20384;-77
2021/09/07 04:16:43;;;;;;;22.60;16.45;;;15.40;92.50;;;;;;4901219;29;20429;-77
2021/09/07 04:19:09;;;;;;;27.30;18.33;;;15.50;92.40;;;;;;4885295;29;20127;-77
2021/09/07 04:21:35;;;;;;;26.38;19.13;;;15.40;92.30;;;;;;4917737;29;20155;-78
2021/09/07 04:24:01;;;;;;;24.58;18.15;;;15.40;92.30;;;;;;4900543;29;20064;-78
2021/09/07 04:26:28;;;;;;;29.45;18.58;;;15.40;92.30;;;;;;4900708;29;20030;-78
2021/09/07 04:28:54;;;;;;;25.55;18.58;;;15.40;92.30;;;;;;4901210;29;20437;-78
2021/09/07 04:31:19;;;;;;;27.13;18.30;;;15.50;92.30;;;;;;4901009;29;20060;-77
2021/09/07 04:33:45;;;;;;;26.80;18.45;;;15.40;92.50;;;;;;4900627;29;20028;-78
2021/09/07 04:36:11;;;;;;;28.65;19.85;;;15.40;92.40;;;;;;4885036;29;20128;-77
2021/09/07 04:38:37;;;;;;;27.05;19.83;;;15.30;92.50;;;;;;4916232;29;20039;-78
2021/09/07 04:41:03;;;;;;;29.55;19.38;;;15.30;92.60;;;;;;4900426;29;20032;-78
2021/09/07 04:43:28;;;;;;;27.25;19.48;;;15.20;92.60;;;;;;4917156;29;20031;-80
2021/09/07 04:45:54;;;;;;;28.58;18.83;;;15.30;92.70;;;;;;4900496;29;20040;-78
2021/09/07 04:48:19;;;;;;;28.40;19.55;;;15.30;92.70;;;;;;4900661;29;20043;-77
2021/09/07 04:50:45;;;;;;;26.42;19.33;;;15.30;92.70;;;;;;4900669;29;20115;-77
2021/09/07 04:53:11;;;;;;;27.73;18.45;;;15.30;92.70;;;;;;4909549;29;20130;-77
2021/09/07 04:55:37;;;;;;;28.17;18.90;;;15.40;92.70;;;;;;4881585;29;20036;-77
2021/09/07 04:58:03;;;;;;;30.35;18.67;;;15.30;92.70;;;;;;4881820;29;20040;-78
2021/09/07 05:00:29;;;;;;;28.83;19.50;;;15.40;92.70;;;;;;4897155;29;20033;-79
2021/09/07 05:02:54;;;;;;;26.08;18.08;;;15.40;92.70;;;;;;4866575;29;20033;-78
2021/09/07 05:05:20;;;;;;;27.02;19.13;;;15.50;92.70;;;;;;4897035;29;20481;-78
2021/09/07 05:07:45;;;;;;;31.17;19.42;;;15.50;92.60;;;;;;4897174;29;20037;-78
2021/09/07 05:10:11;;;;;;;27.17;18.15;;;15.50;92.60;;;;;;4865788;29;20445;-78
2021/09/07 05:12:37;;;;;;;26.05;17.95;;;15.50;92.60;;;;;;4881393;29;20029;-78
2021/09/07 05:15:04;;;;;;;27.23;18.27;;;15.60;92.60;;;;;;4911970;29;20025;-79
2021/09/07 05:17:30;;;;;;;31.17;19.08;;;15.70;92.50;;;;;;4881448;29;20032;-78
2021/09/07 05:19:55;;;;;;;27.85;19.05;;;15.70;92.40;;;;;;4897392;29;20048;-78
2021/09/07 05:22:21;;;;;;;27.48;18.90;;;15.70;92.40;;;;;;4882209;29;20056;-78
2021/09/07 05:24:47;;;;;;;27.33;19.38;;;15.70;92.40;;;;;;4865815;29;20412;-78
2021/09/07 05:27:12;;;;;;;27.10;18.63;;;15.70;92.40;;;;;;4881633;29;20058;-78
2021/09/07 05:29:38;;;;;;;28.73;19.02;;;15.70;92.50;;;;;;4881174;29;20033;-79
2021/09/07 05:32:04;;;;;;;27.25;19.55;;;15.70;92.70;;;;;;4897907;29;20033;-78
2021/09/07 05:34:30;;;;;;;30.08;18.88;;;15.70;92.60;;;;;;4882012;29;20119;-78
2021/09/07 05:36:57;;;;;;;26.40;18.90;;;15.70;92.60;;;;;;4867575;29;20032;-79
2021/09/07 05:39:24;;;;;;;29.77;19.85;;;15.70;92.60;;;;;;4915295;29;20443;-78
2021/09/07 05:41:51;;;;;;;27.30;19.45;;;15.70;92.60;;;;;;4882856;29;20028;-78
2021/09/07 05:44:17;;;;;;;31.58;19.08;;;15.70;92.60;;;;;;4881792;29;20120;-79
2021/09/07 05:46:42;;;;;;;26.92;17.60;;;15.70;92.60;;;;;;4866381;29;20119;-79
2021/09/07 05:49:08;;;;;;;33.22;18.67;;;15.70;92.60;;;;;;4896963;29;20473;-78
2021/09/07 05:51:34;;;;;;;29.00;18.58;;;15.70;92.60;;;;;;4881456;29;20036;-79
2021/09/07 05:53:59;;;;;;;34.33;19.25;;;15.70;92.60;;;;;;4910342;29;20091;-79
2021/09/07 05:56:25;;;;;;;27.35;19.00;;;15.70;92.60;;;;;;4885080;29;20091;-79
2021/09/07 05:58:50;;;;;;;28.23;19.50;;;15.70;92.60;;;;;;4900051;29;20091;-79
2021/09/07 06:01:16;;;;;;;27.45;19.10;;;15.80;92.60;;;;;;4899709;29;20476;-79
2021/09/07 06:03:42;;;;;;;27.17;19.83;;;15.90;92.50;;;;;;4883853;29;20035;-79
2021/09/07 06:06:08;;;;;;;30.08;20.35;;;16.00;92.50;;;;;;4884355;29;20032;-78
2021/09/07 06:08:34;;;;;;;30.38;20.58;;;16.00;92.40;;;;;;4899964;29;20041;-78
2021/09/07 06:11:00;;;;;;;33.22;21.35;;;16.10;92.40;;;;;;4915107;29;20169;-78
2021/09/07 06:13:26;;;;;;;30.27;20.60;;;16.20;92.30;;;;;;4915491;29;20043;-78
2021/09/07 06:15:51;;;;;;;30.35;19.92;;;16.50;92.20;;;;;;4916018;29;20031;-78
2021/09/07 06:18:18;;;;;;;25.42;19.50;;;16.80;91.90;;;;;;4884330;29;20036;-79
2021/09/07 06:20:44;;;;;;;30.05;20.20;;;17.10;91.60;;;;;;4931320;29;20083;-80
2021/09/07 06:23:09;;;;;;;31.73;20.73;;;17.40;90.90;;;;;;4899362;29;20040;-77
2021/09/07 06:25:35;;;;;;;32.90;20.10;;;17.50;90.50;;;;;;4900494;29;20103;-77
2021/09/07 06:28:01;;;;;;;30.63;19.65;;;17.50;90.20;;;;;;4903171;29;20024;-77
2021/09/07 06:30:26;;;;;;;29.35;20.55;;;17.60;90.10;;;;;;4918633;29;20044;-78
2021/09/07 06:32:52;;;;;;;32.17;20.05;;;17.70;89.60;;;;;;4887554;29;20040;-77
2021/09/07 06:35:18;;;;;;;29.98;21.35;;;17.70;89.00;;;;;;4902841;29;20123;-77
2021/09/07 06:37:44;;;;;;;27.55;21.25;;;17.60;88.90;;;;;;4918422;29;20365;-76
2021/09/07 06:40:11;;;;;;;30.40;20.73;;;17.70;89.10;;;;;;4902183;29;20118;-77
2021/09/07 06:42:36;;;;;;;33.50;21.23;;;17.80;88.90;;;;;;4887310;29;20064;-77
2021/09/07 06:45:03;;;;;;;29.60;21.40;;;18.00;88.60;;;;;;4887125;29;20036;-78
2021/09/07 06:47:28;;;;;;;27.55;20.85;;;18.40;87.60;;;;;;4902641;29;20028;-77
2021/09/07 06:49:54;;;;;;;30.17;21.20;;;18.70;86.50;;;;;;4886432;29;20047;-77
2021/09/07 06:52:21;;;;;;;27.40;20.88;;;19.20;84.70;;;;;;4902209;29;20032;-78
2021/09/07 06:54:47;;;;;;;28.92;20.25;;;19.80;83.10;;;;;;4917915;29;20399;-79
2021/09/07 06:57:12;;;;;;;30.08;20.42;;;20.40;81.40;;;;;;4918536;29;20024;-77
2021/09/07 06:59:38;;;;;;;30.42;21.35;;;21.10;79.10;;;;;;4886664;29;20051;-77
2021/09/07 07:02:04;;;;;;;29.88;21.92;;;21.50;77.00;;;;;;4887029;29;20119;-77
2021/09/07 07:04:30;;;;;;;28.23;20.55;;;21.50;75.40;;;;;;4887324;29;20122;-78
2021/09/07 07:06:55;;;;;;;31.95;21.45;;;21.70;74.80;;;;;;4886607;29;20499;-80
2021/09/07 07:09:21;;;;;;;29.75;20.63;;;21.90;74.60;;;;;;4919467;29;20063;-78
2021/09/07 07:11:46;;;;;;;30.50;20.23;;;22.00;73.70;;;;;;4934427;29;20453;-77
2021/09/07 07:14:12;;;;;;;30.35;20.92;;;22.20;73.30;;;;;;4886904;29;20036;-78
2021/09/07 07:16:38;;;;;;;28.63;21.58;;;22.50;72.30;;;;;;4887252;29;20036;-80
2021/09/07 07:19:03;;;;;;;36.20;22.77;;;22.50;70.90;;;;;;4920421;29;20040;-79
2021/09/07 07:21:29;;;;;;;33.33;21.13;;;22.60;70.50;;;;;;4904387;29;20032;-79
2021/09/07 07:23:56;;;;;;;30.67;21.13;;;23.20;69.70;;;;;;4921195;29;20150;-80
2021/09/07 07:26:22;;;;;;;31.45;21.85;;;23.40;68.30;;;;;;4908035;29;20059;-80
2021/09/07 07:28:47;;;;;;;29.80;21.83;;;23.40;67.70;;;;;;4908723;29;20480;-81
2021/09/07 07:31:13;;;;;;;32.85;21.55;;;23.60;67.10;;;;;;4895135;29;20036;-81
2021/09/07 07:33:39;;;;;;;26.20;20.27;;;23.80;66.40;;;;;;4910607;29;20036;-80
2021/09/07 07:36:04;;;;;;;29.00;21.17;;;24.30;65.50;;;;;;4911611;29;20095;-81
2021/09/07 07:38:30;;;;;;;28.67;19.88;;;24.60;64.30;;;;;;4909753;29;20032;-80
2021/09/07 07:40:55;;;;;;;28.98;22.33;;;24.80;63.50;;;;;;4911053;29;20029;-80
2021/09/07 07:43:24;;;;;;;33.40;21.77;;;24.70;63.00;;;;;;4911312;29;20028;-79
2021/09/07 07:45:51;;;;;;;28.08;22.38;;;24.70;63.30;;;;;;4906970;29;20055;-78
2021/09/07 07:48:17;;;;;;;32.83;22.50;;;24.70;62.60;;;;;;4892845;29;20091;-79
2021/09/07 07:50:43;;;;;;;29.27;21.90;;;24.70;63.10;;;;;;4902557;29;20040;-80
2021/09/07 07:53:09;;;;;;;27.25;20.27;;;25.30;62.50;;;;;;4895017;29;20454;-79
2021/09/07 07:55:35;;;;;;;26.50;20.70;;;25.80;61.00;;;;;;4867219;29;20037;-79
2021/09/07 07:58:01;;;;;;;25.48;20.45;;;26.20;59.60;;;;;;4866874;29;20153;-81
2021/09/07 08:00:26;;;;;;;27.02;20.88;;;26.30;57.70;;;;;;4867054;29;20039;-80
2021/09/07 08:02:52;;;;;;;26.33;20.23;;;26.30;57.90;;;;;;4899557;29;20036;-79
2021/09/07 08:05:18;;;;;;;25.45;18.67;;;26.90;57.10;;;;;;4914567;29;20029;-81
2021/09/07 08:07:43;;;;;;;26.77;20.08;;;27.50;55.40;;;;;;4899262;29;20381;-80
2021/09/07 08:10:10;;;;;;;25.42;18.42;;;28.00;53.60;;;;;;4899935;29;20536;-78
2021/09/07 08:12:35;;;;;;;24.45;19.08;;;28.30;52.90;;;;;;4867277;29;20051;-79
2021/09/07 08:15:01;;;;;;;22.70;18.55;;;28.20;51.60;;;;;;4883396;29;20457;-79
2021/09/07 08:17:27;;;;;;;25.55;19.20;;;27.70;51.70;;;;;;4898655;29;20510;-80
2021/09/07 08:19:52;;;;;;;26.83;20.15;;;27.10;52.90;;;;;;4882528;29;20032;-81
2021/09/07 08:22:18;;;;;;;27.80;20.38;;;26.90;53.70;;;;;;4882052;29;20029;-79
2021/09/07 08:24:45;;;;;;;26.17;20.25;;;26.60;54.20;;;;;;4899056;29;20036;-79
2021/09/07 08:27:11;;;;;;;28.85;19.25;;;26.20;54.90;;;;;;4868253;29;20044;-80
2021/09/07 08:29:37;;;;;;;28.50;21.83;;;25.80;56.00;;;;;;4902592;29;20461;-79
2021/09/07 08:32:02;;;;;;;28.35;19.90;;;25.70;57.30;;;;;;4869696;29;20422;-80
2021/09/07 08:34:28;;;;;;;26.38;20.38;;;25.80;56.70;;;;;;4882410;29;20448;-81
2021/09/07 08:36:54;;;;;;;31.00;20.67;;;25.70;57.00;;;;;;4866637;29;20032;-81
2021/09/07 08:39:20;;;;;;;27.83;20.45;;;25.50;57.30;;;;;;4899383;29;20064;-81
2021/09/07 08:41:46;;;;;;;28.08;20.75;;;25.70;58.20;;;;;;4898740;29;20051;-81
2021/09/07 08:44:15;;;;;;;27.73;21.02;;;25.90;57.60;;;;;;4897259;29;20437;-80
2021/09/07 08:46:40;;;;;;;28.63;21.10;;;25.80;58.70;;;;;;4870187;29;20031;-80
2021/09/07 08:49:07;;;;;;;30.13;20.70;;;25.80;57.70;;;;;;4905339;29;20082;-80
2021/09/07 08:51:33;;;;;;;25.85;19.90;;;25.90;58.80;;;;;;4905602;29;20433;-78
2021/09/07 08:54:00;;;;;;;24.90;18.60;;;26.00;58.00;;;;;;4894975;29;20048;-80
2021/09/07 08:56:26;;;;;;;22.13;18.90;;;25.80;58.30;;;;;;4932319;29;20055;-80
2021/09/07 08:58:52;;;;;;;25.90;18.15;;;25.90;58.80;;;;;;4915969;29;20465;-80
2021/09/07 09:01:18;;;;;;;25.70;18.92;;;26.00;58.30;;;;;;4900269;29;20052;-81
2021/09/07 09:03:46;;;;;;;24.25;19.70;;;26.10;57.60;;;;;;4917419;29;20036;-81
2021/09/07 09:06:12;;;;;;;25.63;20.80;;;26.40;57.10;;;;;;4900168;29;20111;-82
2021/09/07 09:08:41;;;;;;;29.55;20.95;;;26.70;56.20;;;;;;4899952;29;20368;-81
2021/09/07 09:11:09;;;;;;;25.63;19.20;;;26.90;55.80;;;;;;4885099;29;20032;-80
2021/09/07 09:13:46;;;;;;;26.02;19.75;;;27.20;54.90;;;;;;4900486;29;20032;-81
2021/09/07 09:16:16;;;;;;;23.95;18.02;;;27.60;53.40;;;;;;4900633;29;20441;-82
2021/09/07 09:18:44;;;;;;;26.48;20.15;;;27.60;52.60;;;;;;4884275;29;20080;-80
2021/09/07 09:21:29;;;;;;;26.30;20.23;;;27.50;53.00;;;;;;4900362;29;20036;-78
2021/09/07 09:24:22;;;;;;;24.00;17.33;;;27.40;52.40;;;;;;4900148;29;20376;-78
2021/09/07 09:26:58;;;;;;;27.48;20.02;;;27.60;52.20;;;;;;4917167;29;20055;-79
2021/09/07 09:29:36;;;;;;;21.83;18.08;;;27.90;51.20;;;;;;4916667;29;20036;-80
2021/09/07 09:32:07;;;;;;;24.02;19.17;;;27.70;51.30;;;;;;4900570;29;20028;-80
2021/09/07 09:34:36;;;;;;;27.03;18.93;;;27.80;51.20;;;;;;4900154;29;20033;-79
2021/09/07 09:37:05;;;;;;;26.02;19.92;;;28.00;49.40;;;;;;4916710;29;20063;-82
2021/09/07 09:39:35;;;;;;;23.55;18.10;;;28.10;49.00;;;;;;4916500;29;20413;-77
2021/09/07 09:42:01;;;;;;;24.17;18.10;;;28.30;48.80;;;;;;4899720;29;20032;-80
2021/09/07 09:44:27;;;;;;;23.00;16.80;;;28.40;47.80;;;;;;4899583;29;20055;-80
2021/09/07 09:46:53;;;;;;;20.60;15.27;;;28.40;48.00;;;;;;4869056;29;20035;-78
2021/09/07 09:49:20;;;;;;;27.45;20.17;;;28.60;47.70;;;;;;4931504;29;20036;-81
2021/09/07 09:51:48;;;;;;;24.67;17.65;;;28.00;47.10;;;;;;4899990;29;20035;-81
2021/09/07 09:54:14;;;;;;;23.95;17.40;;;27.70;48.10;;;;;;4899311;29;20048;-82
2021/09/07 09:56:40;;;;;;;20.27;15.75;;;27.50;48.50;;;;;;4932381;29;20410;-80
2021/09/07 09:59:07;;;;;;;20.00;15.95;;;27.70;48.30;;;;;;4869421;29;20056;-79
2021/09/07 10:01:36;;;;;;;18.73;16.02;;;27.70;45.50;;;;;;4919441;29;20337;-79
2021/09/07 10:04:03;;;;;;;24.45;16.75;;;27.40;45.00;;;;;;4920459;29;20110;-83
2021/09/07 10:06:29;;;;;;;20.00;14.57;;;27.40;46.80;;;;;;4887464;29;20040;-81
2021/09/07 10:08:55;;;;;;;20.42;14.45;;;27.90;46.10;;;;;;4903600;29;20051;-81
2021/09/07 10:11:24;;;;;;;20.25;15.05;;;28.50;45.10;;;;;;4887834;29;20028;-81
2021/09/07 10:13:54;;;;;;;21.90;14.88;;;28.80;42.50;;;;;;4920247;29;20032;-81
2021/09/07 10:16:57;;;;;;;18.90;14.43;;;28.50;42.60;;;;;;4903783;29;20461;-84
2021/09/07 10:19:47;;;;;;;;;;;28.10;43.70;;;;;;4902969;29;20499;-82
2021/09/07 10:23:53;;;;;;;19.92;14.65;;;27.90;43.70;;;;;;4903158;29;20431;-80
2021/09/07 10:25:58;;;;;;;18.70;14.10;;;27.60;45.30;;;;;;4914908;29;20072;-79
2021/09/07 10:28:42;;;;;;;22.10;13.32;;;27.50;44.70;;;;;;4887328;29;20028;-80
2021/09/07 10:31:18;;;;;;;17.05;13.38;;;27.90;45.50;;;;;;4903638;29;20047;-81
2021/09/07 10:33:44;;;;;;;18.85;14.20;;;28.20;45.70;;;;;;4902821;29;20024;-82
2021/09/07 10:36:11;;;;;;;17.20;13.88;;;28.30;45.60;;;;;;4918584;29;20029;-80
2021/09/07 10:38:38;;;;;;;18.55;15.52;;;28.30;45.60;;;;;;4919678;29;20043;-81
2021/09/07 10:41:04;;;;;;;20.70;15.48;;;28.20;46.10;;;;;;4902616;29;20028;-83
2021/09/07 10:43:52;;;;;;;18.73;12.60;;;28.10;46.30;;;;;;4918229;29;20055;-83
2021/09/07 10:46:41;;;;;;;16.10;12.27;;;28.50;46.30;;;;;;4919607;29;20024;-82
2021/09/07 10:49:24;;;;;;;15.85;12.73;;;28.90;44.70;;;;;;4903169;29;20055;-83
2021/09/07 10:52:11;;;;;;;18.88;13.48;;;28.90;45.10;;;;;;4919433;29;20423;-83
2021/09/07 10:54:44;;;;;;;18.13;13.95;;;29.20;45.10;;;;;;4919751;29;20055;-81
2021/09/07 10:57:30;;;;;;;17.67;13.85;;;29.50;43.20;;;;;;4920168;29;20036;-81
2021/09/07 10:59:57;;;;;;;17.63;13.23;;;29.40;43.30;;;;;;4934474;29;20155;-81
2021/09/07 11:02:32;;;;;;;21.23;15.77;;;29.30;43.80;;;;;;4887375;29;20528;-80
2021/09/07 11:04:58;;;;;;;14.50;12.10;;;29.10;43.70;;;;;;4919625;29;20024;-81
2021/09/07 11:07:39;;;;;;;15.68;12.20;;;28.80;43.50;;;;;;4919036;29;20147;-82
2021/09/07 11:10:18;;;;;;;16.65;11.82;;;29.00;43.90;;;;;;4919571;29;20115;-82
2021/09/07 11:13:07;;;;;;;13.93;10.82;;;29.20;43.30;;;;;;4919245;29;20062;-81
2021/09/07 11:15:35;;;;;;;12.32;10.07;;;29.10;43.10;;;;;;4938541;29;20036;-81
2021/09/07 11:18:02;;;;;;;13.40;10.77;;;29.00;43.70;;;;;;4922708;29;20103;-81
2021/09/07 11:20:38;;;;;;;13.85;10.45;;;28.70;43.70;;;;;;4936119;29;20028;-82
2021/09/07 11:23:10;;;;;;;14.02;11.02;;;28.70;44.50;;;;;;4921095;29;20028;-80
2021/09/07 11:25:37;;;;;;;14.73;11.18;;;28.70;44.40;;;;;;4935137;29;20059;-81
2021/09/07 11:28:05;;;;;;;15.02;10.60;;;28.70;45.10;;;;;;4935026;29;20028;-81
2021/09/07 11:30:31;;;;;;;14.30;11.10;;;29.00;44.60;;;;;;4902383;29;20051;-82
2021/09/07 11:33:08;;;;;;;14.30;12.13;;;28.90;44.00;;;;;;4902120;29;20404;-80
2021/09/07 11:35:51;;;;;;;14.40;11.52;;;28.90;44.10;;;;;;4902691;29;20349;-83
2021/09/07 11:38:19;;;;;;;15.80;13.00;;;28.90;44.20;;;;;;4919395;29;20032;-82
2021/09/07 11:40:50;;;;;;;16.10;11.43;;;28.80;44.30;;;;;;4933584;29;20031;-82
2021/09/07 11:43:26;;;;;;;13.82;9.65;;;28.90;44.60;;;;;;4934253;29;20456;-79
2021/09/07 11:46:06;;;;;;;16.55;11.25;;;28.90;44.40;;;;;;4919033;29;20028;-79
2021/09/07 11:48:31;;;;;;;14.30;10.63;;;28.50;44.80;;;;;;4918648;29;20456;-79
2021/09/07 11:50:57;;;;;;;11.20;9.55;;;28.20;45.70;;;;;;4918909;29;20111;-81
2021/09/07 11:53:23;;;;;;;13.13;10.85;;;28.30;45.60;;;;;;4918818;29;20393;-80
2021/09/07 11:55:51;;;;;;;14.63;10.85;;;28.40;45.10;;;;;;4902428;29;20417;-79
2021/09/07 11:58:26;;;;;;;11.82;10.38;;;28.30;44.70;;;;;;4902320;29;20056;-79
2021/09/07 12:01:04;;;;;;;12.50;10.75;;;28.20;45.60;;;;;;4918371;29;20052;-80
2021/09/07 12:03:36;;;;;;;17.33;10.68;;;28.30;46.90;;;;;;4934111;29;20035;-81
2021/09/07 12:06:02;;;;;;;16.52;11.85;;;28.80;47.00;;;;;;4933017;29;20123;-82
2021/09/07 12:08:48;;;;;;;12.00;10.68;;;28.80;45.40;;;;;;4901552;29;20131;-80
2021/09/07 12:11:26;;;;;;;12.80;9.02;;;28.60;45.60;;;;;;4932832;29;20028;-81
2021/09/07 12:14:08;;;;;;;12.13;9.00;;;28.60;45.30;;;;;;4932740;29;20068;-80
2021/09/07 12:16:55;;;;;;;13.75;8.93;;;28.90;45.10;;;;;;4932708;29;20056;-81
2021/09/07 12:19:37;;;;;;;10.68;8.60;;;28.90;44.30;;;;;;4932859;29;20464;-83
2021/09/07 12:22:08;;;;;;;13.38;9.68;;;29.20;44.90;;;;;;4932893;29;20024;-81
2021/09/07 12:24:35;;;;;;;13.33;10.47;;;29.10;44.00;;;;;;4932739;29;20590;-82
2021/09/07 12:27:22;;;;;;;10.43;8.18;;;28.70;45.20;;;;;;4932523;29;20091;-81
2021/09/07 12:30:22;;;;;;;12.35;10.57;;;28.70;45.40;;;;;;4884962;29;20040;-79
2021/09/07 12:33:06;;;;;;;15.80;10.73;;;28.90;44.70;;;;;;4900877;29;20040;-83